Time;durP1;ratioP1;P1;durP2;ratioP2;P2;SDS_P1;SDS_P2;PMS_P1;PMS_P2;Temp;Humidity;BMP_temperature;BMP_pressure;BME280_temperature;BME280_humidity;BME280_pressure;Samples;Min_cycle;Max_cycle;Signal;HPM_P1;HPM_P2
2022/11/04 00:02:14;;;;;;;;;;;9.80;99.90;;;;;;2603504;54;19934;31
2022/11/04 00:04:51;;;;;;;;;;;9.80;99.90;;;;;;2603628;54;19935;31
2022/11/04 00:10:10;;;;;;;;;;;9.90;99.90;;;;;;2603709;54;19942;31
2022/11/04 00:12:44;;;;;;;;;;;9.90;99.90;;;;;;2603328;54;19946;31
2022/11/04 00:18:06;;;;;;;;;;;10.00;99.90;;;;;;2621803;46;19942;31
2022/11/04 00:29:07;;;;;;;;;;;10.10;99.90;;;;;;2603624;54;20765;31
2022/11/04 00:34:27;;;;;;;;;;;10.10;99.90;;;;;;2603352;54;20789;31
2022/11/04 00:37:01;;;;;;;;;;;10.10;99.90;;;;;;2603579;54;20497;31
2022/11/04 00:39:38;;;;;;;;;;;10.10;99.90;;;;;;2603423;54;20805;31
2022/11/04 00:42:13;;;;;;;;;;;10.00;99.90;;;;;;2611808;46;19935;31
2022/11/04 00:44:49;;;;;;;;;;;10.00;99.90;;;;;;2622115;46;19934;31
2022/11/04 00:47:23;;;;;;;;;;;10.00;99.90;;;;;;2621773;46;20516;31
2022/11/04 00:49:57;;;;;;;;;;;10.00;99.90;;;;;;2603368;54;19950;31
2022/11/04 00:52:31;;;;;;;;;;;10.00;99.90;;;;;;2603159;54;20715;31
2022/11/04 00:55:06;;;;;;;;;;;10.00;99.90;;;;;;2621912;46;20799;31
2022/11/04 00:57:40;;;;;;;;;;;10.00;99.90;;;;;;2604171;47;19935;31
2022/11/04 01:00:18;;;;;;;;;;;10.00;99.90;;;;;;2603619;54;20725;31
2022/11/04 01:02:53;;;;;;;;;;;10.00;99.90;;;;;;2603501;54;19943;31
2022/11/04 01:05:27;;;;;;;;;;;10.00;99.90;;;;;;2621880;46;20013;31
2022/11/04 01:08:02;;;;;;;;;;;10.00;99.90;;;;;;2602718;54;20771;31
2022/11/04 01:10:43;;;;;;;;;;;9.90;99.90;;;;;;2603334;54;20716;31
2022/11/04 01:13:17;;;;;;;;;;;9.90;99.90;;;;;;2602991;54;19935;31
2022/11/04 01:15:55;;;;;;;;;;;9.90;99.90;;;;;;2603438;54;20796;31
2022/11/04 01:18:29;;;;;;;;;;;9.90;99.90;;;;;;2603315;54;20535;31
2022/11/04 01:21:03;;;;;;;;;;;9.90;99.90;;;;;;2621863;47;19937;31
2022/11/04 01:23:37;;;;;;;;;;;9.90;99.90;;;;;;2603176;54;20772;31
2022/11/04 01:26:11;;;;;;;;;;;9.90;99.90;;;;;;2603210;54;19935;31
2022/11/04 01:28:46;;;;;;;;;;;9.90;99.90;;;;;;2608770;47;19941;31
2022/11/04 01:31:24;;;;;;;;;;;9.90;99.90;;;;;;2603472;54;19936;31
2022/11/04 01:33:58;;;;;;;;;;;9.80;99.90;;;;;;2604316;47;20383;31
2022/11/04 01:36:33;;;;;;;;;;;9.80;99.90;;;;;;2613056;47;20779;31
2022/11/04 01:39:08;;;;;;;;;;;9.80;99.90;;;;;;2602976;54;19961;31
2022/11/04 01:41:41;;;;;;;;;;;9.80;99.90;;;;;;2603140;54;19941;31
2022/11/04 01:44:30;;;;;;;;;;;9.80;99.90;;;;;;2603071;54;20722;31
2022/11/04 01:47:07;;;;;;;;;;;9.80;99.90;;;;;;2603293;54;19934;31
2022/11/04 01:49:41;;;;;;;;;;;9.70;99.90;;;;;;2701829;39;20356;31
2022/11/04 01:52:18;;;;;;;;;;;9.70;99.90;;;;;;2701694;39;20311;31
2022/11/04 01:54:53;;;;;;;;;;;9.70;99.90;;;;;;2603015;54;20803;31
2022/11/04 01:57:30;;;;;;;;;;;9.70;99.90;;;;;;2701531;39;20374;31
2022/11/04 02:00:05;;;;;;;;;;;9.60;99.90;;;;;;2603363;54;19957;31
2022/11/04 02:02:51;;;;;;;;;;;9.60;99.90;;;;;;2701750;39;20362;31
2022/11/04 02:05:24;;;;;;;;;;;9.60;99.90;;;;;;2603264;54;20458;31
2022/11/04 02:08:00;;;;;;;;;;;9.60;99.90;;;;;;2608615;47;19935;31
2022/11/04 02:10:36;;;;;;;;;;;9.60;99.90;;;;;;2603285;54;19964;31
2022/11/04 02:13:07;;;;;;;;;;;9.60;99.90;;;;;;2603297;54;19934;31
2022/11/04 02:15:44;;;;;;;;;;;9.60;99.90;;;;;;2602951;54;19941;31
2022/11/04 02:18:34;;;;;;;;;;;9.50;99.90;;;;;;2621451;47;20786;31
2022/11/04 02:21:22;;;;;;;;;;;9.50;99.90;;;;;;2608307;47;20769;31
2022/11/04 02:24:19;;;;;;;;;;;9.50;99.90;;;;;;2622010;47;20410;31
2022/11/04 02:26:54;;;;;;;;;;;9.50;99.90;;;;;;2622210;46;20000;31
2022/11/04 02:29:32;;;;;;;;;;;9.50;99.90;;;;;;2603483;54;20788;31
2022/11/04 02:32:08;;;;;;;;;;;9.50;99.90;;;;;;2603696;54;19935;31
2022/11/04 02:34:43;;;;;;;;;;;9.60;99.90;;;;;;2622313;46;20774;31
2022/11/04 02:37:16;;;;;;;;;;;9.50;99.90;;;;;;2622415;46;20727;31
2022/11/04 02:39:52;;;;;;;;;;;9.50;99.90;;;;;;2622294;46;20759;31
2022/11/04 02:42:30;;;;;;;;;;;9.50;99.90;;;;;;2603159;54;20810;31
2022/11/04 02:45:12;;;;;;;;;;;9.50;99.90;;;;;;2603734;54;20849;31
2022/11/04 02:47:47;;;;;;;;;;;9.50;99.90;;;;;;2603690;54;19934;31
2022/11/04 02:50:23;;;;;;;;;;;9.40;99.90;;;;;;2603806;54;20772;31
2022/11/04 02:52:58;;;;;;;;;;;9.40;99.90;;;;;;2622064;46;20398;31
2022/11/04 02:55:34;;;;;;;;;;;9.40;99.90;;;;;;2603854;54;20714;31
2022/11/04 02:58:08;;;;;;;;;;;9.40;99.90;;;;;;2622396;46;19934;31
2022/11/04 03:00:45;;;;;;;;;;;9.40;99.90;;;;;;2603884;54;20880;31
2022/11/04 03:03:19;;;;;;;;;;;9.40;99.90;;;;;;2603647;54;19942;31
2022/11/04 03:05:54;;;;;;;;;;;9.40;99.90;;;;;;2622181;46;20063;31
2022/11/04 03:08:31;;;;;;;;;;;9.40;99.90;;;;;;2603885;54;19938;31
2022/11/04 03:11:08;;;;;;;;;;;9.40;99.90;;;;;;2622190;46;20536;31
2022/11/04 03:13:43;;;;;;;;;;;9.40;99.90;;;;;;2603713;54;20753;31
2022/11/04 03:16:21;;;;;;;;;;;9.40;99.90;;;;;;2620363;46;20011;31
2022/11/04 03:18:57;;;;;;;;;;;9.40;99.90;;;;;;2603679;54;19981;31
2022/11/04 03:21:31;;;;;;;;;;;9.40;99.90;;;;;;2622361;46;20889;31
2022/11/04 03:24:08;;;;;;;;;;;9.40;99.90;;;;;;2622196;46;19934;31
2022/11/04 03:26:43;;;;;;;;;;;9.40;99.90;;;;;;2603429;54;19989;31
2022/11/04 03:29:20;;;;;;;;;;;9.40;99.90;;;;;;2603661;54;19938;31
2022/11/04 03:31:59;;;;;;;;;;;9.40;99.90;;;;;;2603808;54;19935;31
2022/11/04 03:34:33;;;;;;;;;;;9.40;99.90;;;;;;2603542;54;19935;31
2022/11/04 03:37:07;;;;;;;;;;;9.40;99.90;;;;;;2603254;54;21345;31
2022/11/04 03:39:41;;;;;;;;;;;9.40;99.90;;;;;;2622272;46;20427;31
2022/11/04 03:42:23;;;;;;;;;;;9.40;99.90;;;;;;2622025;46;20775;31
2022/11/04 03:44:57;;;;;;;;;;;9.40;99.90;;;;;;2702232;39;20397;31
2022/11/04 03:47:34;;;;;;;;;;;9.40;99.90;;;;;;2603640;54;19935;31
2022/11/04 03:50:09;;;;;;;;;;;9.30;99.90;;;;;;2720707;39;20355;31
2022/11/04 03:52:43;;;;;;;;;;;9.40;99.90;;;;;;2603697;54;19941;31
2022/11/04 03:55:17;;;;;;;;;;;9.40;99.90;;;;;;2603647;54;20001;31
2022/11/04 03:57:51;;;;;;;;;;;9.30;99.90;;;;;;2603587;54;20714;31
2022/11/04 04:00:26;;;;;;;;;;;9.30;99.90;;;;;;2603231;54;19935;31
2022/11/04 04:03:11;;;;;;;;;;;9.30;99.90;;;;;;2603518;54;20006;31
2022/11/04 04:05:45;;;;;;;;;;;9.30;99.90;;;;;;2603822;54;19941;31
2022/11/04 04:08:21;;;;;;;;;;;9.30;99.90;;;;;;2622018;46;20026;31
2022/11/04 04:10:59;;;;;;;;;;;9.40;99.90;;;;;;2603745;54;20366;31
2022/11/04 04:13:33;;;;;;;;;;;9.30;99.90;;;;;;2602637;54;19942;31
2022/11/04 04:16:09;;;;;;;;;;;9.30;99.90;;;;;;2603680;54;19934;31
2022/11/04 04:18:47;;;;;;;;;;;9.30;99.90;;;;;;2622172;46;19939;31
2022/11/04 04:21:29;;;;;;;;;;;9.30;99.90;;;;;;2622032;46;21284;31
2022/11/04 04:29:37;;;;;;;;;;;9.30;99.90;;;;;;2603656;54;19935;31
2022/11/04 04:32:12;;;;;;;;;;;9.30;99.90;;;;;;2622232;46;20576;31
2022/11/04 04:34:50;;;;;;;;;;;9.30;99.90;;;;;;2603496;54;19938;31
2022/11/04 04:37:25;;;;;;;;;;;9.30;99.90;;;;;;2603317;54;19942;31
2022/11/04 04:45:32;;;;;;;;;;;9.30;99.90;;;;;;2621786;46;19934;31
2022/11/04 04:48:06;;;;;;;;;;;9.30;99.90;;;;;;2603316;54;19941;31
2022/11/04 04:50:44;;;;;;;;;;;9.40;99.90;;;;;;2622218;46;20701;31
2022/11/04 04:53:18;;;;;;;;;;;9.30;99.90;;;;;;2603547;54;19960;31
2022/11/04 04:55:55;;;;;;;;;;;9.30;99.90;;;;;;2603313;54;19961;31
2022/11/04 04:58:30;;;;;;;;;;;9.40;99.90;;;;;;2603310;54;20742;31
2022/11/04 05:01:03;;;;;;;;;;;9.30;99.90;;;;;;2603479;54;19998;31
2022/11/04 05:03:38;;;;;;;;;;;9.40;99.90;;;;;;2603210;54;20727;31
2022/11/04 05:06:19;;;;;;;;;;;9.40;99.90;;;;;;2622012;46;20706;31
2022/11/04 05:08:53;;;;;;;;;;;9.40;99.90;;;;;;2603324;54;20005;31
2022/11/04 05:11:27;;;;;;;;;;;9.40;99.90;;;;;;2603184;54;19940;31
2022/11/04 05:14:03;;;;;;;;;;;9.40;99.90;;;;;;2603408;54;21255;31
2022/11/04 05:16:37;;;;;;;;;;;9.40;99.90;;;;;;2622082;46;20764;31
2022/11/04 05:19:14;;;;;;;;;;;9.40;99.90;;;;;;2621628;46;19942;31
2022/11/04 05:21:52;;;;;;;;;;;9.40;99.90;;;;;;2603201;54;19946;31
2022/11/04 05:24:26;;;;;;;;;;;9.40;99.90;;;;;;2603132;54;19935;31
2022/11/04 05:26:59;;;;;;;;;;;9.40;99.90;;;;;;2603158;54;19935;31
2022/11/04 05:29:34;;;;;;;;;;;9.40;99.90;;;;;;2603138;54;20728;31
2022/11/04 05:32:08;;;;;;;;;;;9.40;99.90;;;;;;2621536;47;19961;31
2022/11/04 05:34:42;;;;;;;;;;;9.30;99.90;;;;;;2620639;47;19968;31
2022/11/04 05:37:20;;;;;;;;;;;9.30;99.90;;;;;;2602376;54;19941;31
2022/11/04 05:39:54;;;;;;;;;;;9.30;99.90;;;;;;2602592;54;19947;31
2022/11/04 05:42:28;;;;;;;;;;;9.30;99.90;;;;;;2603072;54;20790;31
2022/11/04 05:45:02;;;;;;;;;;;9.30;99.90;;;;;;2602517;54;19934;31
2022/11/04 05:47:36;;;;;;;;;;;9.30;99.90;;;;;;2603068;54;20022;31
2022/11/04 05:50:12;;;;;;;;;;;9.30;99.90;;;;;;2701600;39;20397;31
2022/11/04 05:52:49;;;;;;;;;;;9.30;99.90;;;;;;2603297;54;20002;31
2022/11/04 05:55:25;;;;;;;;;;;9.40;99.90;;;;;;2701778;39;20401;31
2022/11/04 05:57:59;;;;;;;;;;;9.40;99.90;;;;;;2602849;54;19930;31
2022/11/04 06:00:35;;;;;;;;;;;9.40;99.90;;;;;;2603790;54;20748;31
2022/11/04 06:03:10;;;;;;;;;;;9.40;99.90;;;;;;2603883;54;19993;31
2022/11/04 06:05:50;;;;;;;;;;;9.40;99.90;;;;;;2622565;46;20701;31
2022/11/04 06:08:29;;;;;;;;;;;9.40;99.90;;;;;;2613791;46;19938;31
2022/11/04 06:11:04;;;;;;;;;;;9.40;99.90;;;;;;2720897;39;20363;31
2022/11/04 06:13:38;;;;;;;;;;;9.50;99.90;;;;;;2622739;46;20755;31
2022/11/04 06:16:12;;;;;;;;;;;9.50;99.90;;;;;;2604017;54;19934;31
2022/11/04 06:18:46;;;;;;;;;;;9.50;99.90;;;;;;2622714;46;19934;31
2022/11/04 06:23:55;;;;;;;;;;;9.50;99.90;;;;;;2603803;54;20473;31
2022/11/04 06:26:30;;;;;;;;;;;9.60;99.90;;;;;;2603755;54;19934;31
2022/11/04 06:29:04;;;;;;;;;;;9.60;99.90;;;;;;2604064;54;20803;31
2022/11/04 06:31:37;;;;;;;;;;;9.60;99.90;;;;;;2622218;46;19942;31
2022/11/04 06:34:11;;;;;;;;;;;9.60;99.90;;;;;;2613735;46;20783;31
2022/11/04 06:36:45;;;;;;;;;;;9.60;99.90;;;;;;2603790;54;20825;31
2022/11/04 06:39:23;;;;;;;;;;;9.70;99.90;;;;;;2603537;54;20032;31
2022/11/04 06:41:58;;;;;;;;;;;9.70;99.90;;;;;;2603981;54;19942;31
2022/11/04 06:44:36;;;;;;;;;;;9.70;99.90;;;;;;2603825;54;19961;31
2022/11/04 06:47:10;;;;;;;;;;;9.80;99.90;;;;;;2622497;46;20239;31
2022/11/04 06:49:44;;;;;;;;;;;9.80;99.90;;;;;;2603822;54;20730;31
2022/11/04 06:52:19;;;;;;;;;;;9.90;99.90;;;;;;2603631;54;19935;31
2022/11/04 06:54:56;;;;;;;;;;;9.90;99.90;;;;;;2622237;46;19941;31
2022/11/04 06:57:30;;;;;;;;;;;10.00;99.90;;;;;;2702091;39;21333;31
2022/11/04 07:00:04;;;;;;;;;;;10.00;99.90;;;;;;2603824;54;20021;31
2022/11/04 07:02:41;;;;;;;;;;;10.10;99.90;;;;;;2622217;46;19935;31
2022/11/04 07:05:17;;;;;;;;;;;10.20;99.90;;;;;;2602839;54;20812;31
2022/11/04 07:07:51;;;;;;;;;;;10.30;99.90;;;;;;2603687;54;20864;31
2022/11/04 07:10:25;;;;;;;;;;;10.40;99.90;;;;;;2622425;46;19934;31
2022/11/04 07:13:02;;;;;;;;;;;10.50;99.90;;;;;;2603627;54;20770;31
2022/11/04 07:15:36;;;;;;;;;;;10.70;99.90;;;;;;2622243;46;19942;31
2022/11/04 07:18:10;;;;;;;;;;;10.90;99.90;;;;;;2617975;46;19939;31
2022/11/04 07:20:45;;;;;;;;;;;11.00;99.90;;;;;;2720983;39;21414;31
2022/11/04 07:23:19;;;;;;;;;;;11.10;99.90;;;;;;2603793;54;20794;31
2022/11/04 07:25:53;;;;;;;;;;;11.20;99.90;;;;;;2603531;54;20702;31
2022/11/04 07:28:30;;;;;;;;;;;11.30;99.90;;;;;;2609789;46;20741;31
2022/11/04 07:31:05;;;;;;;;;;;11.30;99.90;;;;;;2603735;54;19990;31
2022/11/04 07:33:40;;;;;;;;;;;11.30;99.90;;;;;;2622223;46;20465;31
2022/11/04 07:36:15;;;;;;;;;;;11.40;99.90;;;;;;2603644;54;20466;31
2022/11/04 07:38:49;;;;;;;;;;;11.40;99.90;;;;;;2610217;46;19997;31
2022/11/04 07:41:22;;;;;;;;;;;11.50;99.90;;;;;;2622533;46;19960;31
2022/11/04 07:44:04;;;;;;;;;;;11.50;99.90;;;;;;2622138;46;19941;31
2022/11/04 07:46:40;;;;;;;;;;;11.60;99.90;;;;;;2622105;46;20424;31
2022/11/04 07:49:14;;;;;;;;;;;11.60;99.90;;;;;;2603680;54;20738;31
2022/11/04 07:51:49;;;;;;;;;;;11.70;99.90;;;;;;2622051;46;19941;31
2022/11/04 07:54:23;;;;;;;;;;;11.70;99.90;;;;;;2621947;46;20569;31
2022/11/04 07:56:57;;;;;;;;;;;11.80;99.90;;;;;;2603721;54;19942;31
2022/11/04 07:59:36;;;;;;;;;;;11.80;99.90;;;;;;2607643;46;19950;31
2022/11/04 08:02:10;;;;;;;;;;;11.90;99.90;;;;;;2603714;54;19934;31
2022/11/04 08:04:45;;;;;;;;;;;11.90;99.90;;;;;;2701925;39;21433;31
2022/11/04 08:07:20;;;;;;;;;;;12.00;99.90;;;;;;2603561;54;19993;31
2022/11/04 08:09:55;;;;;;;;;;;12.00;99.90;;;;;;2603494;54;19950;31
2022/11/04 08:12:31;;;;;;;;;;;12.00;99.90;;;;;;2603477;54;19934;31
2022/11/04 08:15:09;;;;;;;;;;;12.00;99.90;;;;;;2603097;54;20021;31
2022/11/04 08:17:44;;;;;;;;;;;12.00;99.90;;;;;;2603405;54;20759;31
2022/11/04 08:20:19;;;;;;;;;;;12.00;99.90;;;;;;2622071;46;20784;31
2022/11/04 08:22:54;;;;;;;;;;;12.00;99.90;;;;;;2608718;46;19941;31
2022/11/04 08:25:30;;;;;;;;;;;12.00;99.90;;;;;;2603427;54;20029;31
2022/11/04 08:28:06;;;;;;;;;;;12.10;99.90;;;;;;2603497;54;20705;31
2022/11/04 08:30:43;;;;;;;;;;;12.10;99.90;;;;;;2603418;54;20866;31
2022/11/04 08:33:18;;;;;;;;;;;12.10;99.90;;;;;;2622320;46;19941;31
2022/11/04 08:35:53;;;;;;;;;;;12.20;99.90;;;;;;2622115;46;20066;31
2022/11/04 08:38:28;;;;;;;;;;;12.20;99.90;;;;;;2603619;54;20001;31
2022/11/04 08:41:04;;;;;;;;;;;12.30;99.90;;;;;;2602561;54;19966;31
2022/11/04 08:43:39;;;;;;;;;;;12.40;99.90;;;;;;2603479;54;19942;31
2022/11/04 08:46:15;;;;;;;;;;;12.50;99.90;;;;;;2603611;54;20516;31
2022/11/04 08:48:51;;;;;;;;;;;12.60;99.90;;;;;;2621851;46;20483;31
2022/11/04 08:51:24;;;;;;;;;;;12.70;99.90;;;;;;2603399;54;20884;31
2022/11/04 08:53:58;;;;;;;;;;;12.80;99.90;;;;;;2603181;54;19946;31
2022/11/04 08:56:34;;;;;;;;;;;12.90;99.90;;;;;;2603467;54;20861;31
2022/11/04 08:59:09;;;;;;;;;;;13.00;99.90;;;;;;2603196;54;19946;31
2022/11/04 09:01:47;;;;;;;;;;;13.10;99.90;;;;;;2621671;46;19935;31
2022/11/04 09:04:23;;;;;;;;;;;13.20;99.90;;;;;;2621806;46;19934;31
2022/11/04 09:07:00;;;;;;;;;;;13.30;99.90;;;;;;2621887;46;19935;31
2022/11/04 09:09:41;;;;;;;;;;;13.40;99.90;;;;;;2622008;46;19935;31
2022/11/04 09:12:15;;;;;;;;;;;13.40;99.90;;;;;;2603529;54;19939;31
2022/11/04 09:14:49;;;;;;;;;;;13.50;99.90;;;;;;2603556;54;20737;31
2022/11/04 09:17:26;;;;;;;;;;;13.70;99.90;;;;;;2603401;54;19941;31
2022/11/04 09:20:02;;;;;;;;;;;13.80;99.90;;;;;;2603270;54;20798;31
2022/11/04 09:22:36;;;;;;;;;;;14.00;99.90;;;;;;2603000;54;19939;31
2022/11/04 09:25:18;;;;;;;;;;;14.20;99.90;;;;;;2603567;54;19942;31
2022/11/04 09:27:52;;;;;;;;;;;14.40;99.90;;;;;;2603426;54;19945;31
2022/11/04 09:30:26;;;;;;;;;;;14.50;99.90;;;;;;2603333;54;19934;31
2022/11/04 09:33:03;;;;;;;;;;;14.60;99.90;;;;;;2602951;54;20804;31
2022/11/04 09:35:37;;;;;;;;;;;14.70;99.90;;;;;;2603724;54;20001;31
2022/11/04 09:38:11;;;;;;;;;;;14.70;99.90;;;;;;2604125;54;20702;31
2022/11/04 09:40:44;;;;;;;;;;;14.70;99.90;;;;;;2604198;54;20797;31
2022/11/04 09:43:21;;;;;;;;;;;14.70;99.90;;;;;;2603910;54;19989;31
2022/11/04 09:45:56;;;;;;;;;;;14.70;99.90;;;;;;2604267;54;19935;31
2022/11/04 09:48:30;;;;;;;;;;;14.70;99.90;;;;;;2604211;54;19935;31
2022/11/04 09:51:05;;;;;;;;;;;14.70;99.90;;;;;;2603918;54;20018;31
2022/11/04 09:53:41;;;;;;;;;;;14.70;99.90;;;;;;2604464;54;20824;31
2022/11/04 09:56:18;;;;;;;;;;;14.70;99.90;;;;;;2604037;54;20734;31
2022/11/04 09:58:53;;;;;;;;;;;14.70;99.90;;;;;;2604048;54;19946;31
2022/11/04 10:01:31;;;;;;;;;;;14.70;99.90;;;;;;2603724;54;19934;31
2022/11/04 10:04:15;;;;;;;;;;;14.70;99.90;;;;;;2603724;54;20751;31
2022/11/04 10:06:52;;;;;;;;;;;14.60;99.90;;;;;;2607388;46;20815;31
2022/11/04 10:09:37;;;;;;;;;;;14.60;99.90;;;;;;2603706;54;20781;31
2022/11/04 10:12:15;;;;;;;;;;;14.60;99.90;;;;;;2604047;54;19935;31
2022/11/04 10:15:00;;;;;;;;;;;14.60;99.90;;;;;;2609240;46;19942;31
2022/11/04 10:17:40;;;;;;;;;;;14.50;99.90;;;;;;2603938;54;19934;31
2022/11/04 10:20:30;;;;;;;;;;;14.50;99.90;;;;;;2603823;54;20718;31
2022/11/04 10:23:06;;;;;;;;;;;14.50;99.90;;;;;;2603733;54;19934;31
2022/11/04 10:25:46;;;;;;;;;;;14.50;99.90;;;;;;2708259;39;20313;31
2022/11/04 10:28:21;;;;;;;;;;;14.50;99.90;;;;;;2622461;46;19934;31
2022/11/04 10:30:56;;;;;;;;;;;14.50;99.90;;;;;;2605053;46;19946;31
2022/11/04 10:33:32;;;;;;;;;;;14.50;99.90;;;;;;2603592;54;19942;31
2022/11/04 10:36:08;;;;;;;;;;;14.50;99.90;;;;;;2604169;54;20711;31
2022/11/04 10:38:43;;;;;;;;;;;14.50;99.90;;;;;;2603637;54;20776;31
2022/11/04 10:41:22;;;;;;;;;;;14.40;99.90;;;;;;2614443;46;20778;31
2022/11/04 10:43:57;;;;;;;;;;;14.40;99.90;;;;;;2603823;54;20452;31
2022/11/04 10:46:43;;;;;;;;;;;14.40;99.90;;;;;;2603704;54;19934;31
2022/11/04 10:49:27;;;;;;;;;;;14.40;99.90;;;;;;2604486;46;20025;31
2022/11/04 10:52:02;;;;;;;;;;;14.30;99.90;;;;;;2603766;54;20733;31
2022/11/04 10:54:38;;;;;;;;;;;14.30;99.90;;;;;;2622433;46;20083;31
2022/11/04 10:57:15;;;;;;;;;;;14.20;99.90;;;;;;2609324;46;19997;31
2022/11/04 10:59:52;;;;;;;;;;;14.20;99.90;;;;;;2605127;46;21384;31
2022/11/04 11:02:42;;;;;;;;;;;14.20;99.90;;;;;;2603880;54;19941;31
2022/11/04 11:05:18;;;;;;;;;;;14.10;99.90;;;;;;2603833;54;20727;31
2022/11/04 11:07:51;;;;;;;;;;;14.10;99.90;;;;;;2607921;46;19930;31
2022/11/04 11:10:26;;;;;;;;;;;14.00;99.90;;;;;;2603806;54;19942;31
2022/11/04 11:13:05;;;;;;;;;;;14.00;99.90;;;;;;2604900;46;19934;31
2022/11/04 11:15:41;;;;;;;;;;;14.10;99.90;;;;;;2603656;54;19938;31
2022/11/04 11:18:16;;;;;;;;;;;14.00;99.90;;;;;;2604878;46;19934;31
2022/11/04 11:20:51;;;;;;;;;;;14.00;99.90;;;;;;2609281;46;20719;31
2022/11/04 11:23:35;;;;;;;;;;;14.00;99.90;;;;;;2603906;54;19935;31
2022/11/04 11:26:11;;;;;;;;;;;14.00;99.90;;;;;;2603585;54;20746;31
2022/11/04 11:28:49;;;;;;;;;;;14.00;99.90;;;;;;2603873;54;21256;31
2022/11/04 11:31:37;;;;;;;;;;;14.00;99.90;;;;;;2603843;54;20015;31
2022/11/04 11:34:16;;;;;;;;;;;14.10;99.90;;;;;;2622326;46;19940;31
2022/11/04 11:36:50;;;;;;;;;;;14.10;99.90;;;;;;2604533;46;19935;31
2022/11/04 11:39:25;;;;;;;;;;;14.20;99.90;;;;;;2613446;46;19993;31
2022/11/04 11:42:00;;;;;;;;;;;14.30;99.90;;;;;;2603513;54;20849;31
2022/11/04 11:44:42;;;;;;;;;;;14.40;99.90;;;;;;2603624;54;20000;31
2022/11/04 11:47:20;;;;;;;;;;;14.40;99.90;;;;;;2604694;46;20833;31
2022/11/04 11:50:06;;;;;;;;;;;14.40;99.90;;;;;;2621745;46;19935;31
2022/11/04 11:52:40;;;;;;;;;;;14.40;99.90;;;;;;2603691;54;20771;31
2022/11/04 11:55:15;;;;;;;;;;;14.30;99.90;;;;;;2603457;54;20858;31
2022/11/04 11:57:52;;;;;;;;;;;14.30;99.90;;;;;;2603364;54;19962;31
2022/11/04 12:00:50;;;;;;;;;;;14.30;99.90;;;;;;2603502;54;19939;31
2022/11/04 12:03:34;;;;;;;;;;;14.30;99.90;;;;;;2603846;54;19934;31
2022/11/04 12:06:31;;;;;;;;;;;14.30;99.90;;;;;;2603306;54;21224;31
2022/11/04 12:09:15;;;;;;;;;;;14.20;99.90;;;;;;2603195;47;20021;31
2022/11/04 12:12:03;;;;;;;;;;;14.20;99.90;;;;;;2603614;54;20738;31
2022/11/04 12:14:40;;;;;;;;;;;14.20;99.90;;;;;;2609375;46;20761;31
2022/11/04 12:17:29;;;;;;;;;;;14.20;99.90;;;;;;2603786;54;19941;31
2022/11/04 12:20:10;;;;;;;;;;;14.20;99.90;;;;;;2605037;46;19942;31
2022/11/04 12:22:49;;;;;;;;;;;14.20;99.90;;;;;;2603530;54;19934;31
2022/11/04 12:25:26;;;;;;;;;;;14.10;99.90;;;;;;2603458;54;19941;31
2022/11/04 12:30:30;;;;;;;;;;;14.00;99.90;;;;;;2613379;46;19942;31
2022/11/04 12:33:16;;;;;;;;;;;14.00;99.90;;;;;;2603104;54;19942;31
2022/11/04 12:38:25;;;;;;;;;;;14.00;99.90;;;;;;2603271;54;19993;31
2022/11/04 12:41:01;;;;;;;;;;;14.00;99.90;;;;;;2603525;54;19938;31
2022/11/04 12:43:58;;;;;;;;;;;13.90;99.90;;;;;;2613344;46;19938;31
2022/11/04 12:46:34;;;;;;;;;;;13.90;99.90;;;;;;2603242;54;19934;31
2022/11/04 12:49:26;;;;;;;;;;;13.90;99.90;;;;;;2603313;54;19950;31
2022/11/04 12:52:06;;;;;;;;;;;13.90;99.90;;;;;;2603597;54;19956;31
2022/11/04 12:54:44;;;;;;;;;;;13.80;99.90;;;;;;2702000;39;20212;31
2022/11/04 12:57:20;;;;;;;;;;;13.80;99.90;;;;;;2602469;54;19942;31
2022/11/04 13:00:03;;;;;;;;;;;13.80;99.90;;;;;;2603521;54;20396;31
2022/11/04 13:02:39;;;;;;;;;;;13.80;99.90;;;;;;2613112;46;19942;31
2022/11/04 13:05:25;;;;;;;;;;;13.80;99.90;;;;;;2621868;46;20751;31
2022/11/04 13:08:05;;;;;;;;;;;13.80;99.90;;;;;;2608847;46;20802;31
2022/11/04 13:10:48;;;;;;;;;;;13.80;99.90;;;;;;2603398;54;19938;31
2022/11/04 13:13:26;;;;;;;;;;;13.70;99.90;;;;;;2603433;54;19966;31
2022/11/04 13:16:00;;;;;;;;;;;13.70;99.90;;;;;;2604465;47;19938;31
2022/11/04 13:18:37;;;;;;;;;;;13.70;99.90;;;;;;2603435;54;19934;31
2022/11/04 13:21:14;;;;;;;;;;;13.70;99.90;;;;;;2604672;47;19934;31
2022/11/04 13:23:49;;;;;;;;;;;13.70;99.90;;;;;;2617677;46;19935;31
2022/11/04 13:26:23;;;;;;;;;;;13.70;99.90;;;;;;2621446;47;20772;31
2022/11/04 13:28:58;;;;;;;;;;;13.70;99.90;;;;;;2602958;54;21315;31
2022/11/04 13:31:47;;;;;;;;;;;13.70;99.90;;;;;;2603002;54;20037;31
2022/11/04 13:34:27;;;;;;;;;;;13.70;99.90;;;;;;2621880;47;19954;31
2022/11/04 13:37:05;;;;;;;;;;;13.70;99.90;;;;;;2603381;54;19935;31
2022/11/04 13:39:43;;;;;;;;;;;13.70;99.90;;;;;;2773318;31;21413;31
2022/11/04 13:42:32;;;;;;;;;;;13.70;99.90;;;;;;2621876;47;19950;31
2022/11/04 13:45:06;;;;;;;;;;;13.70;99.90;;;;;;2604388;47;20402;31
2022/11/04 13:47:44;;;;;;;;;;;13.70;99.90;;;;;;2603345;54;20771;31
2022/11/04 13:50:34;;;;;;;;;;;13.70;99.90;;;;;;2602978;54;20820;31
2022/11/04 13:53:09;;;;;;;;;;;13.80;99.90;;;;;;2602988;54;20779;31
2022/11/04 13:55:42;;;;;;;;;;;13.70;99.90;;;;;;2603190;54;19934;31
2022/11/04 13:58:19;;;;;;;;;;;13.70;99.90;;;;;;2603085;54;20007;31
2022/11/04 14:01:08;;;;;;;;;;;13.70;99.90;;;;;;2603261;54;20014;31
2022/11/04 14:03:53;;;;;;;;;;;13.70;99.90;;;;;;2602952;54;19934;31
2022/11/04 14:06:42;;;;;;;;;;;13.70;99.90;;;;;;2604215;47;20376;31
2022/11/04 14:09:27;;;;;;;;;;;13.70;99.90;;;;;;2602734;54;19934;31
2022/11/04 14:12:20;;;;;;;;;;;13.70;99.90;;;;;;2609682;39;20942;31
2022/11/04 14:14:59;;;;;;;;;;;13.70;99.90;;;;;;2604075;47;20735;31
2022/11/04 14:17:51;;;;;;;;;;;13.70;99.90;;;;;;2603374;54;19941;31
2022/11/04 14:20:26;;;;;;;;;;;13.70;99.90;;;;;;2603704;54;19961;31
2022/11/04 14:23:00;;;;;;;;;;;13.70;99.90;;;;;;2603029;54;20441;31
2022/11/04 14:25:34;;;;;;;;;;;13.70;99.90;;;;;;2604083;54;19970;31
2022/11/04 14:28:11;;;;;;;;;;;13.70;99.90;;;;;;2605055;46;20746;31
2022/11/04 14:30:50;;;;;;;;;;;13.70;99.90;;;;;;2603754;54;19934;31
2022/11/04 14:33:33;;;;;;;;;;;13.70;99.90;;;;;;2622431;46;19935;31
2022/11/04 14:36:16;;;;;;;;;;;13.70;99.90;;;;;;2603917;54;20694;31
2022/11/04 14:38:53;;;;;;;;;;;13.70;99.90;;;;;;2604806;46;19938;31
2022/11/04 14:41:33;;;;;;;;;;;13.60;99.90;;;;;;2603862;54;20800;31
2022/11/04 14:44:09;;;;;;;;;;;13.60;99.90;;;;;;2603666;54;19946;31
2022/11/04 14:46:48;;;;;;;;;;;13.60;99.90;;;;;;2603989;54;19989;31
2022/11/04 14:49:34;;;;;;;;;;;13.60;99.90;;;;;;2720925;39;20313;31
2022/11/04 14:52:08;;;;;;;;;;;13.70;99.90;;;;;;2603832;54;20725;31
2022/11/04 14:54:43;;;;;;;;;;;13.60;99.90;;;;;;2603705;54;19950;31
2022/11/04 14:57:19;;;;;;;;;;;13.60;99.90;;;;;;2622210;46;19934;31
2022/11/04 14:59:56;;;;;;;;;;;13.60;99.90;;;;;;2603865;54;19940;31
2022/11/04 15:02:34;;;;;;;;;;;13.60;99.90;;;;;;2603867;54;20774;31
2022/11/04 15:05:10;;;;;;;;;;;13.50;99.90;;;;;;2603864;54;19934;31
2022/11/04 15:07:46;;;;;;;;;;;13.50;99.90;;;;;;2603718;54;19934;31
2022/11/04 15:10:24;;;;;;;;;;;13.50;99.90;;;;;;2604827;46;20863;31
2022/11/04 15:13:00;;;;;;;;;;;13.40;99.90;;;;;;2603587;54;19946;31
2022/11/04 15:15:36;;;;;;;;;;;13.40;99.90;;;;;;2602925;54;19954;31
2022/11/04 15:18:11;;;;;;;;;;;13.40;99.90;;;;;;2608581;46;20789;31
2022/11/04 15:20:47;;;;;;;;;;;13.40;99.90;;;;;;2603550;54;19946;31
2022/11/04 15:23:23;;;;;;;;;;;13.40;99.90;;;;;;2603786;54;20798;31
2022/11/04 15:25:58;;;;;;;;;;;13.40;99.90;;;;;;2607436;46;19934;31
2022/11/04 15:28:35;;;;;;;;;;;13.40;99.90;;;;;;2603729;54;20807;31
2022/11/04 15:31:19;;;;;;;;;;;13.40;99.90;;;;;;2602424;54;19943;31
2022/11/04 15:33:56;;;;;;;;;;;13.40;99.90;;;;;;2604794;46;19973;31
2022/11/04 15:36:34;;;;;;;;;;;13.40;99.90;;;;;;2603655;54;19956;31
2022/11/04 15:39:09;;;;;;;;;;;13.30;99.90;;;;;;2622485;46;21139;31
2022/11/04 15:44:30;;;;;;;;;;;13.30;99.90;;;;;;2603633;54;20002;31
2022/11/04 15:47:05;;;;;;;;;;;13.30;99.90;;;;;;2622196;46;19938;31
2022/11/04 15:49:47;;;;;;;;;;;13.30;99.90;;;;;;2622216;46;20717;31
2022/11/04 15:52:25;;;;;;;;;;;13.20;99.90;;;;;;2603374;54;20811;31
2022/11/04 15:55:00;;;;;;;;;;;13.20;99.90;;;;;;2603487;54;19994;31
2022/11/04 15:57:33;;;;;;;;;;;13.20;99.90;;;;;;2603807;54;20429;31
2022/11/04 16:00:09;;;;;;;;;;;13.20;99.90;;;;;;2603722;54;20714;31
2022/11/04 16:02:45;;;;;;;;;;;13.20;99.90;;;;;;2702283;39;20374;31
2022/11/04 16:05:22;;;;;;;;;;;13.20;99.90;;;;;;2603751;54;20597;31
2022/11/04 16:08:16;;;;;;;;;;;13.10;99.90;;;;;;2622165;46;19985;31
2022/11/04 16:10:50;;;;;;;;;;;13.10;99.90;;;;;;2613433;46;20428;31
2022/11/04 16:13:27;;;;;;;;;;;13.10;99.90;;;;;;2603749;54;19940;31